Auxvasse, Missouri
Current Conditions -  °F | °C
As of 1:54 AM on Thursday 29 Jan 2015 (Local Time) from KCOU Reporting Station
Clear Clear  
Wind Chill: 12°   Ceiling: Unl
Heat Index: 12°   Visibility: 10mi
Dew Point:   Wind: 15mph
Humidity: 59%   Direction: 280°W
Pressure: 29.79"   Gusts: 24mph
Location:  39.02°N, 91.9°W
Report Text: KCOU 290754Z AUTO 28013G21KT 10SM CLR 12/04 A2979 RMK AO2 SLP087 T01220044
Loading
Personal Weather Stations






























Interactive Weather Map New forecast layout! Learn more

10-Day Weather Forecast

Advertisements
Track Severe Weather on mobile